QFA215 YMML-YSSY
Flight info
| Callsign | QFA215 |
|---|---|
| Flight time | N/A |
| Altitude | 39000 |
| Route | DOSEL2/34 DOSEL Y59 RIVET RIVET4/34L |
| Aircraft | A339/H-SADE1E2E3GHIJ3J5M1P2RWXY/LB2D1 |
Departure
| Time | N/A |
|---|---|
| Airport | Melbourne Airport (YMML) |
Arrival
| Time | 2026-05-04 12:02 |
|---|---|
| Airport | Sydney Kingsford Smith International Airport (YSSY) |
| Time | Latitude | Longitude | Altitude | Speed | Heading |
|---|---|---|---|---|---|
| 2026-05-04 11:44 | -34.36961 | 150.23117 | 15164 ft | 368 kts | 54° |
| 2026-05-04 11:44 | -34.35748 | 150.25842 | 14825 ft | 366 kts | 54° |
| 2026-05-04 11:45 | -34.34542 | 150.28542 | 14486 ft | 364 kts | 54° |
| 2026-05-04 11:45 | -34.33348 | 150.31221 | 14192 ft | 359 kts | 54° |
| 2026-05-04 11:45 | -34.32176 | 150.33847 | 13905 ft | 355 kts | 54° |
| 2026-05-04 11:45 | -34.31005 | 150.36467 | 13619 ft | 349 kts | 54° |
| 2026-05-04 11:46 | -34.29929 | 150.38870 | 13309 ft | 347 kts | 54° |
| 2026-05-04 11:46 | -34.28790 | 150.41406 | 12959 ft | 345 kts | 54° |
| 2026-05-04 11:46 | -34.27646 | 150.43956 | 12603 ft | 343 kts | 54° |
| 2026-05-04 11:46 | -34.26519 | 150.46477 | 12272 ft | 340 kts | 55° |
| 2026-05-04 11:47 | -34.25400 | 150.48984 | 11965 ft | 337 kts | 55° |
| 2026-05-04 11:47 | -34.24285 | 150.51479 | 11656 ft | 334 kts | 55° |
| 2026-05-04 11:47 | -34.23184 | 150.53938 | 11347 ft | 332 kts | 55° |
| 2026-05-04 11:47 | -34.22103 | 150.56352 | 11052 ft | 329 kts | 55° |
| 2026-05-04 11:48 | -34.21014 | 150.58783 | 10770 ft | 325 kts | 55° |
| 2026-05-04 11:48 | -34.19953 | 150.61148 | 10483 ft | 321 kts | 55° |
| 2026-05-04 11:48 | -34.18897 | 150.63498 | 10209 ft | 318 kts | 56° |
| 2026-05-04 11:48 | -34.17839 | 150.65851 | 9936 ft | 315 kts | 55° |
| 2026-05-04 11:49 | -34.16854 | 150.68054 | 9859 ft | 306 kts | 55° |
| 2026-05-04 11:49 | -34.15857 | 150.70270 | 9635 ft | 302 kts | 55° |
| 2026-05-04 11:49 | -34.14851 | 150.72505 | 9391 ft | 298 kts | 54° |
| 2026-05-04 11:49 | -34.13861 | 150.74699 | 9065 ft | 299 kts | 55° |
| 2026-05-04 11:50 | -34.12913 | 150.76794 | 8750 ft | 299 kts | 55° |
| 2026-05-04 11:50 | -34.11959 | 150.78908 | 8481 ft | 297 kts | 55° |
| 2026-05-04 11:50 | -34.10968 | 150.81104 | 8196 ft | 296 kts | 55° |
| 2026-05-04 11:50 | -34.09997 | 150.83255 | 7939 ft | 294 kts | 55° |
| 2026-05-04 11:51 | -34.09030 | 150.85406 | 7932 ft | 284 kts | 56° |
| 2026-05-04 11:51 | -34.08099 | 150.87483 | 7955 ft | 286 kts | 56° |
| 2026-05-04 11:51 | -34.07203 | 150.89471 | 7964 ft | 287 kts | 55° |
| 2026-05-04 11:51 | -34.06282 | 150.91518 | 7979 ft | 286 kts | 55° |
| 2026-05-04 11:52 | -34.05342 | 150.93600 | 7978 ft | 286 kts | 56° |
| 2026-05-04 11:52 | -34.04387 | 150.95720 | 7979 ft | 285 kts | 56° |
| 2026-05-04 11:52 | -34.03452 | 150.97836 | 7958 ft | 287 kts | 60° |
| 2026-05-04 11:52 | -34.03070 | 151.00220 | 7929 ft | 300 kts | 92° |
| 2026-05-04 11:53 | -34.03775 | 151.02596 | 7814 ft | 309 kts | 123° |
| 2026-05-04 11:53 | -34.05214 | 151.04533 | 7520 ft | 311 kts | 135° |
| 2026-05-04 11:53 | -34.06765 | 151.06325 | 7254 ft | 310 kts | 137° |
| 2026-05-04 11:53 | -34.08512 | 151.07803 | 6960 ft | 309 kts | 157° |
| 2026-05-04 11:55 | -34.20838 | 151.15268 | 4779 ft | 307 kts | 105° |
| 2026-05-04 11:55 | -34.21447 | 151.17767 | 4328 ft | 310 kts | 98° |
| 2026-05-04 11:56 | -34.21444 | 151.20316 | 3869 ft | 306 kts | 73° |
| 2026-05-04 11:56 | -34.20560 | 151.22607 | 3422 ft | 299 kts | 47° |
| 2026-05-04 11:56 | -34.19006 | 151.24188 | 3053 ft | 292 kts | 27° |
| 2026-05-04 11:56 | -34.17245 | 151.25330 | 2971 ft | 281 kts | 24° |
| 2026-05-04 11:57 | -34.15458 | 151.26097 | 2969 ft | 263 kts | 4° |
| 2026-05-04 11:57 | -34.13725 | 151.25829 | 2942 ft | 248 kts | 335° |
| 2026-05-04 11:57 | -34.12281 | 151.24777 | 2957 ft | 241 kts | 325° |
| 2026-05-04 11:57 | -34.10978 | 151.23612 | 2957 ft | 242 kts | 323° |
| 2026-05-04 11:58 | -34.09662 | 151.22385 | 2962 ft | 242 kts | 323° |
| 2026-05-04 11:58 | -34.08227 | 151.21307 | 2964 ft | 241 kts | 337° |
| 2026-05-04 11:58 | -34.06660 | 151.20700 | 2871 ft | 232 kts | 345° |
| 2026-05-04 11:58 | -34.05130 | 151.20302 | 2365 ft | 231 kts | 348° |
| 2026-05-04 11:59 | -34.03604 | 151.19937 | 2002 ft | 214 kts | 348° |
| 2026-05-04 11:59 | -34.02207 | 151.19580 | 1657 ft | 201 kts | 348° |
| 2026-05-04 11:59 | -34.00856 | 151.19228 | 1277 ft | 191 kts | 348° |
| 2026-05-04 11:59 | -33.99601 | 151.18895 | 871 ft | 185 kts | 349° |
| 2026-05-04 12:00 | -33.98358 | 151.18582 | 548 ft | 176 kts | 348° |
| 2026-05-04 12:00 | -33.97179 | 151.18265 | 214 ft | 172 kts | 348° |
| 2026-05-04 12:00 | -33.96048 | 151.17958 | 62 ft | 163 kts | 350° |
| 2026-05-04 12:00 | -33.94921 | 151.17665 | 39 ft | 169 kts | 350° |
| 2026-05-04 12:02 | -33.92929 | 151.17505 | 37 ft | 11 kts | 128° |
| 2026-05-04 12:03 | -33.92999 | 151.17535 | 37 ft | 11 kts | 168° |
| 2026-05-04 12:03 | -33.93078 | 151.17520 | 37 ft | 11 kts | 192° |
| 2026-05-04 12:03 | -33.93121 | 151.17539 | 37 ft | 3 kts | 109° |
| 2026-05-04 12:03 | -33.93127 | 151.17551 | 37 ft | 2 kts | 120° |
| 2026-05-04 12:04 | -33.93141 | 151.17583 | 37 ft | 5 kts | 115° |
| 2026-05-04 12:04 | -33.93157 | 151.17625 | 37 ft | 0 kts | 114° |
| 2026-05-04 12:04 | -33.93158 | 151.17627 | 37 ft | 0 kts | 114° |